sensor_id;sensor_type;location;lat;lon;timestamp;P1;durP1;ratioP1;P2;durP2;ratioP2
35056;SDS011;21241;51.828;19.574;2023-06-04T00:01:41;3.50;;;3.20;;
35056;SDS011;21241;51.828;19.574;2023-06-04T00:04:09;3.50;;;2.90;;
35056;SDS011;21241;51.828;19.574;2023-06-04T00:06:36;3.60;;;2.60;;
35056;SDS011;21241;51.828;19.574;2023-06-04T00:09:05;3.30;;;3.00;;
35056;SDS011;21241;51.828;19.574;2023-06-04T00:11:32;3.00;;;2.80;;
35056;SDS011;21241;51.828;19.574;2023-06-04T00:14:02;3.60;;;3.30;;
35056;SDS011;21241;51.828;19.574;2023-06-04T00:16:30;3.70;;;2.60;;
35056;SDS011;21241;51.828;19.574;2023-06-04T00:18:58;4.00;;;2.30;;
35056;SDS011;21241;51.828;19.574;2023-06-04T00:21:26;5.10;;;2.40;;
35056;SDS011;21241;51.828;19.574;2023-06-04T00:23:53;2.50;;;2.20;;
35056;SDS011;21241;51.828;19.574;2023-06-04T00:26:21;2.40;;;2.20;;
35056;SDS011;21241;51.828;19.574;2023-06-04T00:28:50;2.90;;;2.60;;
35056;SDS011;21241;51.828;19.574;2023-06-04T00:31:17;2.70;;;2.50;;
35056;SDS011;21241;51.828;19.574;2023-06-04T00:33:45;2.80;;;2.40;;
35056;SDS011;21241;51.828;19.574;2023-06-04T00:36:13;3.60;;;2.40;;
35056;SDS011;21241;51.828;19.574;2023-06-04T00:38:41;3.30;;;3.10;;
35056;SDS011;21241;51.828;19.574;2023-06-04T00:41:08;2.90;;;2.60;;
35056;SDS011;21241;51.828;19.574;2023-06-04T00:43:36;2.90;;;2.60;;
35056;SDS011;21241;51.828;19.574;2023-06-04T00:46:05;3.80;;;2.60;;
35056;SDS011;21241;51.828;19.574;2023-06-04T00:48:34;3.20;;;2.50;;
35056;SDS011;21241;51.828;19.574;2023-06-04T00:51:05;3.40;;;3.00;;
35056;SDS011;21241;51.828;19.574;2023-06-04T00:53:33;3.30;;;2.80;;
35056;SDS011;21241;51.828;19.574;2023-06-04T00:56:01;3.00;;;2.80;;
35056;SDS011;21241;51.828;19.574;2023-06-04T00:58:29;3.10;;;2.70;;
35056;SDS011;21241;51.828;19.574;2023-06-04T01:00:56;3.00;;;2.30;;
35056;SDS011;21241;51.828;19.574;2023-06-04T01:03:28;3.00;;;2.70;;
35056;SDS011;21241;51.828;19.574;2023-06-04T01:06:04;2.60;;;2.40;;
35056;SDS011;21241;51.828;19.574;2023-06-04T01:09:00;3.30;;;2.60;;
35056;SDS011;21241;51.828;19.574;2023-06-04T01:11:35;2.70;;;2.50;;
35056;SDS011;21241;51.828;19.574;2023-06-04T01:14:04;2.70;;;2.50;;
35056;SDS011;21241;51.828;19.574;2023-06-04T01:16:41;2.70;;;2.50;;
35056;SDS011;21241;51.828;19.574;2023-06-04T01:20:05;3.40;;;2.60;;
35056;SDS011;21241;51.828;19.574;2023-06-04T01:22:11;2.70;;;2.40;;
35056;SDS011;21241;51.828;19.574;2023-06-04T01:25:02;3.00;;;2.50;;
35056;SDS011;21241;51.828;19.574;2023-06-04T01:27:37;3.20;;;2.90;;
35056;SDS011;21241;51.828;19.574;2023-06-04T01:30:05;4.40;;;3.00;;
35056;SDS011;21241;51.828;19.574;2023-06-04T01:32:34;3.40;;;3.00;;
35056;SDS011;21241;51.828;19.574;2023-06-04T01:35:02;2.90;;;2.60;;
35056;SDS011;21241;51.828;19.574;2023-06-04T01:37:29;3.30;;;3.00;;
35056;SDS011;21241;51.828;19.574;2023-06-04T01:39:57;3.40;;;2.70;;
35056;SDS011;21241;51.828;19.574;2023-06-04T01:42:25;4.00;;;3.10;;
35056;SDS011;21241;51.828;19.574;2023-06-04T01:44:52;3.70;;;3.40;;
35056;SDS011;21241;51.828;19.574;2023-06-04T01:47:20;3.90;;;3.50;;
35056;SDS011;21241;51.828;19.574;2023-06-04T01:49:48;3.10;;;2.90;;
35056;SDS011;21241;51.828;19.574;2023-06-04T01:52:16;4.90;;;3.80;;
35056;SDS011;21241;51.828;19.574;2023-06-04T01:54:43;3.40;;;3.10;;
35056;SDS011;21241;51.828;19.574;2023-06-04T01:57:11;3.20;;;2.90;;
35056;SDS011;21241;51.828;19.574;2023-06-04T01:59:39;3.40;;;3.10;;
35056;SDS011;21241;51.828;19.574;2023-06-04T02:02:08;4.20;;;3.00;;
35056;SDS011;21241;51.828;19.574;2023-06-04T02:04:36;3.20;;;2.70;;
35056;SDS011;21241;51.828;19.574;2023-06-04T02:07:04;3.70;;;3.30;;
35056;SDS011;21241;51.828;19.574;2023-06-04T02:09:34;3.80;;;3.40;;
35056;SDS011;21241;51.828;19.574;2023-06-04T02:12:02;4.50;;;3.80;;
35056;SDS011;21241;51.828;19.574;2023-06-04T02:14:30;4.30;;;3.70;;
35056;SDS011;21241;51.828;19.574;2023-06-04T02:16:58;4.00;;;3.30;;
35056;SDS011;21241;51.828;19.574;2023-06-04T02:19:28;4.30;;;3.90;;
35056;SDS011;21241;51.828;19.574;2023-06-04T02:21:56;4.00;;;3.50;;
35056;SDS011;21241;51.828;19.574;2023-06-04T02:24:23;4.70;;;3.70;;
35056;SDS011;21241;51.828;19.574;2023-06-04T02:26:51;4.40;;;3.90;;
35056;SDS011;21241;51.828;19.574;2023-06-04T02:29:19;3.60;;;3.30;;
35056;SDS011;21241;51.828;19.574;2023-06-04T02:31:46;4.40;;;4.00;;
35056;SDS011;21241;51.828;19.574;2023-06-04T02:34:14;3.60;;;3.30;;
35056;SDS011;21241;51.828;19.574;2023-06-04T02:36:43;3.90;;;3.60;;
35056;SDS011;21241;51.828;19.574;2023-06-04T02:39:16;4.10;;;3.80;;
35056;SDS011;21241;51.828;19.574;2023-06-04T02:41:45;4.30;;;3.90;;
35056;SDS011;21241;51.828;19.574;2023-06-04T02:44:13;4.00;;;3.50;;
35056;SDS011;21241;51.828;19.574;2023-06-04T02:46:41;4.10;;;3.70;;
35056;SDS011;21241;51.828;19.574;2023-06-04T02:49:09;4.10;;;3.70;;
35056;SDS011;21241;51.828;19.574;2023-06-04T02:51:37;3.70;;;3.30;;
35056;SDS011;21241;51.828;19.574;2023-06-04T02:54:05;3.90;;;3.50;;
35056;SDS011;21241;51.828;19.574;2023-06-04T02:56:33;4.30;;;3.90;;
35056;SDS011;21241;51.828;19.574;2023-06-04T02:59:01;5.60;;;3.60;;
35056;SDS011;21241;51.828;19.574;2023-06-04T03:01:29;4.10;;;3.70;;
35056;SDS011;21241;51.828;19.574;2023-06-04T03:03:57;4.50;;;4.10;;
35056;SDS011;21241;51.828;19.574;2023-06-04T03:06:25;4.20;;;3.80;;
35056;SDS011;21241;51.828;19.574;2023-06-04T03:08:53;4.70;;;4.20;;
35056;SDS011;21241;51.828;19.574;2023-06-04T03:11:23;4.60;;;3.70;;
35056;SDS011;21241;51.828;19.574;2023-06-04T03:13:50;4.40;;;4.00;;
35056;SDS011;21241;51.828;19.574;2023-06-04T03:16:21;4.50;;;4.10;;
35056;SDS011;21241;51.828;19.574;2023-06-04T03:18:49;4.40;;;4.00;;
35056;SDS011;21241;51.828;19.574;2023-06-04T03:21:17;4.00;;;3.50;;
35056;SDS011;21241;51.828;19.574;2023-06-04T03:23:45;4.50;;;3.80;;
35056;SDS011;21241;51.828;19.574;2023-06-04T03:26:12;4.10;;;3.80;;
35056;SDS011;21241;51.828;19.574;2023-06-04T03:28:40;4.30;;;4.00;;
35056;SDS011;21241;51.828;19.574;2023-06-04T03:31:09;4.80;;;4.40;;
35056;SDS011;21241;51.828;19.574;2023-06-04T03:33:37;4.90;;;4.30;;
35056;SDS011;21241;51.828;19.574;2023-06-04T03:36:05;4.30;;;3.90;;
35056;SDS011;21241;51.828;19.574;2023-06-04T03:38:33;4.30;;;3.90;;
35056;SDS011;21241;51.828;19.574;2023-06-04T03:41:01;4.60;;;4.10;;
35056;SDS011;21241;51.828;19.574;2023-06-04T03:43:28;5.30;;;4.40;;
35056;SDS011;21241;51.828;19.574;2023-06-04T03:46:00;4.20;;;3.80;;
35056;SDS011;21241;51.828;19.574;2023-06-04T03:48:28;4.70;;;4.20;;
35056;SDS011;21241;51.828;19.574;2023-06-04T03:50:56;4.60;;;4.10;;
35056;SDS011;21241;51.828;19.574;2023-06-04T03:53:24;4.30;;;3.90;;
35056;SDS011;21241;51.828;19.574;2023-06-04T03:55:52;4.30;;;4.00;;
35056;SDS011;21241;51.828;19.574;2023-06-04T03:58:19;4.30;;;3.80;;
35056;SDS011;21241;51.828;19.574;2023-06-04T04:00:50;3.90;;;3.50;;
35056;SDS011;21241;51.828;19.574;2023-06-04T04:03:19;3.90;;;3.60;;
35056;SDS011;21241;51.828;19.574;2023-06-04T04:05:48;5.70;;;3.90;;
35056;SDS011;21241;51.828;19.574;2023-06-04T04:08:15;3.70;;;3.40;;
35056;SDS011;21241;51.828;19.574;2023-06-04T04:10:44;4.10;;;3.50;;
35056;SDS011;21241;51.828;19.574;2023-06-04T04:13:12;3.80;;;3.20;;
35056;SDS011;21241;51.828;19.574;2023-06-04T04:15:41;3.30;;;3.00;;
35056;SDS011;21241;51.828;19.574;2023-06-04T04:18:09;3.70;;;3.10;;
35056;SDS011;21241;51.828;19.574;2023-06-04T04:20:38;3.10;;;2.90;;
35056;SDS011;21241;51.828;19.574;2023-06-04T04:23:09;3.60;;;3.00;;
35056;SDS011;21241;51.828;19.574;2023-06-04T04:25:37;60.60;;;47.40;;
35056;SDS011;21241;51.828;19.574;2023-06-04T04:28:06;60.30;;;51.50;;
35056;SDS011;21241;51.828;19.574;2023-06-04T04:30:35;23.70;;;21.40;;
35056;SDS011;21241;51.828;19.574;2023-06-04T04:33:03;11.30;;;10.10;;
35056;SDS011;21241;51.828;19.574;2023-06-04T04:35:37;6.30;;;5.70;;
35056;SDS011;21241;51.828;19.574;2023-06-04T04:38:05;3.60;;;3.30;;
35056;SDS011;21241;51.828;19.574;2023-06-04T04:40:37;3.60;;;3.30;;
35056;SDS011;21241;51.828;19.574;2023-06-04T04:43:05;3.50;;;3.20;;
35056;SDS011;21241;51.828;19.574;2023-06-04T04:45:33;3.40;;;3.10;;
35056;SDS011;21241;51.828;19.574;2023-06-04T04:48:01;3.50;;;2.60;;
35056;SDS011;21241;51.828;19.574;2023-06-04T04:50:30;2.90;;;2.30;;
35056;SDS011;21241;51.828;19.574;2023-06-04T04:52:59;2.20;;;2.00;;
35056;SDS011;21241;51.828;19.574;2023-06-04T04:55:27;2.60;;;2.30;;
35056;SDS011;21241;51.828;19.574;2023-06-04T04:57:55;2.90;;;2.20;;
35056;SDS011;21241;51.828;19.574;2023-06-04T05:00:23;2.40;;;1.90;;
35056;SDS011;21241;51.828;19.574;2023-06-04T05:02:53;2.40;;;2.00;;
35056;SDS011;21241;51.828;19.574;2023-06-04T05:05:21;2.50;;;2.30;;
35056;SDS011;21241;51.828;19.574;2023-06-04T05:07:49;3.40;;;2.30;;
35056;SDS011;21241;51.828;19.574;2023-06-04T05:10:18;2.80;;;2.40;;
35056;SDS011;21241;51.828;19.574;2023-06-04T05:12:51;2.40;;;2.10;;
35056;SDS011;21241;51.828;19.574;2023-06-04T05:15:21;2.10;;;1.90;;
35056;SDS011;21241;51.828;19.574;2023-06-04T05:17:49;3.40;;;2.00;;
35056;SDS011;21241;51.828;19.574;2023-06-04T05:20:18;4.30;;;2.40;;
35056;SDS011;21241;51.828;19.574;2023-06-04T05:22:46;2.10;;;1.90;;
35056;SDS011;21241;51.828;19.574;2023-06-04T05:25:14;2.50;;;2.30;;
35056;SDS011;21241;51.828;19.574;2023-06-04T05:27:42;3.20;;;2.10;;
35056;SDS011;21241;51.828;19.574;2023-06-04T05:30:11;3.20;;;2.40;;
35056;SDS011;21241;51.828;19.574;2023-06-04T05:32:39;3.20;;;1.80;;
35056;SDS011;21241;51.828;19.574;2023-06-04T05:35:10;2.40;;;2.20;;
35056;SDS011;21241;51.828;19.574;2023-06-04T05:37:39;2.90;;;2.00;;
35056;SDS011;21241;51.828;19.574;2023-06-04T05:40:09;2.00;;;1.80;;
35056;SDS011;21241;51.828;19.574;2023-06-04T05:42:38;3.30;;;1.80;;
35056;SDS011;21241;51.828;19.574;2023-06-04T05:45:07;2.80;;;1.90;;
35056;SDS011;21241;51.828;19.574;2023-06-04T05:47:37;2.30;;;2.10;;
35056;SDS011;21241;51.828;19.574;2023-06-04T05:50:05;2.70;;;1.90;;
35056;SDS011;21241;51.828;19.574;2023-06-04T05:52:35;3.20;;;1.70;;
35056;SDS011;21241;51.828;19.574;2023-06-04T05:55:06;2.70;;;1.90;;
35056;SDS011;21241;51.828;19.574;2023-06-04T05:57:35;1.70;;;1.60;;
35056;SDS011;21241;51.828;19.574;2023-06-04T06:00:03;4.80;;;2.00;;
35056;SDS011;21241;51.828;19.574;2023-06-04T06:02:40;3.60;;;2.20;;
35056;SDS011;21241;51.828;19.574;2023-06-04T06:05:13;2.20;;;2.00;;
35056;SDS011;21241;51.828;19.574;2023-06-04T06:07:41;2.70;;;2.20;;
35056;SDS011;21241;51.828;19.574;2023-06-04T06:10:09;1.80;;;1.70;;
35056;SDS011;21241;51.828;19.574;2023-06-04T06:12:37;2.00;;;1.90;;
35056;SDS011;21241;51.828;19.574;2023-06-04T06:15:05;2.10;;;1.90;;
35056;SDS011;21241;51.828;19.574;2023-06-04T06:17:33;1.80;;;1.60;;
35056;SDS011;21241;51.828;19.574;2023-06-04T06:20:02;1.80;;;1.60;;
35056;SDS011;21241;51.828;19.574;2023-06-04T06:22:35;1.70;;;1.60;;
35056;SDS011;21241;51.828;19.574;2023-06-04T06:25:03;3.10;;;2.30;;
35056;SDS011;21241;51.828;19.574;2023-06-04T06:27:35;2.00;;;1.50;;
35056;SDS011;21241;51.828;19.574;2023-06-04T06:30:05;2.10;;;1.90;;
35056;SDS011;21241;51.828;19.574;2023-06-04T06:32:34;1.80;;;1.60;;
35056;SDS011;21241;51.828;19.574;2023-06-04T06:35:03;2.70;;;1.60;;
35056;SDS011;21241;51.828;19.574;2023-06-04T06:37:31;1.60;;;1.40;;
35056;SDS011;21241;51.828;19.574;2023-06-04T06:39:58;2.30;;;1.60;;
35056;SDS011;21241;51.828;19.574;2023-06-04T06:42:26;1.80;;;1.60;;
35056;SDS011;21241;51.828;19.574;2023-06-04T06:45:00;1.60;;;1.50;;
35056;SDS011;21241;51.828;19.574;2023-06-04T06:47:27;2.30;;;1.70;;
35056;SDS011;21241;51.828;19.574;2023-06-04T06:49:55;1.50;;;1.40;;
35056;SDS011;21241;51.828;19.574;2023-06-04T06:52:23;1.90;;;1.40;;
35056;SDS011;21241;51.828;19.574;2023-06-04T06:54:51;2.90;;;1.40;;
35056;SDS011;21241;51.828;19.574;2023-06-04T06:57:20;2.00;;;1.40;;
35056;SDS011;21241;51.828;19.574;2023-06-04T06:59:47;2.30;;;1.70;;
35056;SDS011;21241;51.828;19.574;2023-06-04T07:02:15;1.70;;;1.40;;
35056;SDS011;21241;51.828;19.574;2023-06-04T07:04:43;1.40;;;1.30;;
35056;SDS011;21241;51.828;19.574;2023-06-04T07:07:11;2.00;;;1.60;;
35056;SDS011;21241;51.828;19.574;2023-06-04T07:09:39;1.70;;;1.60;;
35056;SDS011;21241;51.828;19.574;2023-06-04T07:12:06;2.10;;;1.20;;
35056;SDS011;21241;51.828;19.574;2023-06-04T07:14:34;2.10;;;1.50;;
35056;SDS011;21241;51.828;19.574;2023-06-04T07:17:02;1.40;;;1.20;;
35056;SDS011;21241;51.828;19.574;2023-06-04T07:19:31;1.80;;;1.30;;
35056;SDS011;21241;51.828;19.574;2023-06-04T07:21:58;2.60;;;1.70;;
35056;SDS011;21241;51.828;19.574;2023-06-04T07:24:26;2.30;;;1.40;;
35056;SDS011;21241;51.828;19.574;2023-06-04T07:26:54;1.80;;;1.70;;
35056;SDS011;21241;51.828;19.574;2023-06-04T07:29:22;4.10;;;1.50;;
35056;SDS011;21241;51.828;19.574;2023-06-04T07:31:49;4.10;;;1.80;;
35056;SDS011;21241;51.828;19.574;2023-06-04T07:34:17;1.60;;;1.40;;
35056;SDS011;21241;51.828;19.574;2023-06-04T07:36:45;1.50;;;1.40;;
35056;SDS011;21241;51.828;19.574;2023-06-04T07:39:13;2.00;;;1.80;;
35056;SDS011;21241;51.828;19.574;2023-06-04T07:41:40;1.50;;;1.40;;
35056;SDS011;21241;51.828;19.574;2023-06-04T07:44:08;1.80;;;1.70;;
35056;SDS011;21241;51.828;19.574;2023-06-04T07:46:36;1.80;;;1.60;;
35056;SDS011;21241;51.828;19.574;2023-06-04T07:49:03;2.50;;;1.50;;
35056;SDS011;21241;51.828;19.574;2023-06-04T07:51:31;3.50;;;1.90;;
35056;SDS011;21241;51.828;19.574;2023-06-04T07:53:59;2.10;;;1.50;;
35056;SDS011;21241;51.828;19.574;2023-06-04T07:56:26;2.50;;;1.50;;
35056;SDS011;21241;51.828;19.574;2023-06-04T07:58:54;3.40;;;1.70;;
35056;SDS011;21241;51.828;19.574;2023-06-04T08:01:23;1.70;;;1.60;;
35056;SDS011;21241;51.828;19.574;2023-06-04T08:03:51;1.50;;;1.40;;
35056;SDS011;21241;51.828;19.574;2023-06-04T08:06:19;1.60;;;1.50;;
35056;SDS011;21241;51.828;19.574;2023-06-04T08:08:47;2.70;;;1.60;;
35056;SDS011;21241;51.828;19.574;2023-06-04T08:11:16;1.70;;;1.60;;
35056;SDS011;21241;51.828;19.574;2023-06-04T08:13:43;2.10;;;1.70;;
35056;SDS011;21241;51.828;19.574;2023-06-04T08:16:11;2.20;;;1.40;;
35056;SDS011;21241;51.828;19.574;2023-06-04T08:18:39;2.60;;;1.70;;
35056;SDS011;21241;51.828;19.574;2023-06-04T08:21:09;2.00;;;1.70;;
35056;SDS011;21241;51.828;19.574;2023-06-04T08:23:39;1.60;;;1.50;;
35056;SDS011;21241;51.828;19.574;2023-06-04T08:26:07;1.70;;;1.40;;
35056;SDS011;21241;51.828;19.574;2023-06-04T08:28:35;2.40;;;1.60;;
35056;SDS011;21241;51.828;19.574;2023-06-04T08:31:05;1.70;;;1.60;;
35056;SDS011;21241;51.828;19.574;2023-06-04T08:33:34;1.70;;;1.50;;
35056;SDS011;21241;51.828;19.574;2023-06-04T08:36:01;1.80;;;1.70;;
35056;SDS011;21241;51.828;19.574;2023-06-04T08:38:29;1.50;;;1.40;;
35056;SDS011;21241;51.828;19.574;2023-06-04T08:40:57;1.80;;;1.70;;
35056;SDS011;21241;51.828;19.574;2023-06-04T08:43:29;1.50;;;1.40;;
35056;SDS011;21241;51.828;19.574;2023-06-04T08:45:59;2.10;;;1.50;;
35056;SDS011;21241;51.828;19.574;2023-06-04T08:48:29;1.50;;;1.40;;
35056;SDS011;21241;51.828;19.574;2023-06-04T08:50:57;1.80;;;1.60;;
35056;SDS011;21241;51.828;19.574;2023-06-04T08:53:27;2.00;;;1.50;;
35056;SDS011;21241;51.828;19.574;2023-06-04T08:55:55;2.60;;;1.60;;
35056;SDS011;21241;51.828;19.574;2023-06-04T08:58:23;1.60;;;1.40;;
35056;SDS011;21241;51.828;19.574;2023-06-04T09:00:52;1.30;;;1.20;;
35056;SDS011;21241;51.828;19.574;2023-06-04T09:03:19;1.90;;;1.40;;
35056;SDS011;21241;51.828;19.574;2023-06-04T09:05:48;2.30;;;1.30;;
35056;SDS011;21241;51.828;19.574;2023-06-04T09:08:17;2.20;;;1.40;;
35056;SDS011;21241;51.828;19.574;2023-06-04T09:10:46;1.40;;;1.30;;
35056;SDS011;21241;51.828;19.574;2023-06-04T09:13:19;1.30;;;1.20;;
35056;SDS011;21241;51.828;19.574;2023-06-04T09:15:59;2.00;;;1.40;;
35056;SDS011;21241;51.828;19.574;2023-06-04T09:18:31;1.60;;;1.50;;
35056;SDS011;21241;51.828;19.574;2023-06-04T09:21:08;2.00;;;1.50;;
35056;SDS011;21241;51.828;19.574;2023-06-04T09:23:43;1.40;;;1.30;;
35056;SDS011;21241;51.828;19.574;2023-06-04T09:26:13;1.50;;;1.40;;
35056;SDS011;21241;51.828;19.574;2023-06-04T09:28:42;1.40;;;1.30;;
35056;SDS011;21241;51.828;19.574;2023-06-04T09:31:14;1.40;;;1.30;;
35056;SDS011;21241;51.828;19.574;2023-06-04T09:33:44;1.10;;;1.00;;
35056;SDS011;21241;51.828;19.574;2023-06-04T09:36:12;1.80;;;1.50;;
35056;SDS011;21241;51.828;19.574;2023-06-04T09:38:40;2.30;;;1.40;;
35056;SDS011;21241;51.828;19.574;2023-06-04T09:41:12;1.90;;;1.50;;
35056;SDS011;21241;51.828;19.574;2023-06-04T09:43:40;1.90;;;1.40;;
35056;SDS011;21241;51.828;19.574;2023-06-04T09:48:40;2.40;;;1.60;;
35056;SDS011;21241;51.828;19.574;2023-06-04T09:51:09;2.20;;;2.00;;
35056;SDS011;21241;51.828;19.574;2023-06-04T09:53:57;2.70;;;1.80;;
35056;SDS011;21241;51.828;19.574;2023-06-04T09:56:26;1.60;;;1.30;;
35056;SDS011;21241;51.828;19.574;2023-06-04T09:58:58;2.80;;;1.40;;
35056;SDS011;21241;51.828;19.574;2023-06-04T10:01:30;2.60;;;1.40;;
35056;SDS011;21241;51.828;19.574;2023-06-04T10:04:02;3.00;;;1.70;;
35056;SDS011;21241;51.828;19.574;2023-06-04T10:06:35;1.70;;;1.50;;
35056;SDS011;21241;51.828;19.574;2023-06-04T10:09:07;1.50;;;1.40;;
35056;SDS011;21241;51.828;19.574;2023-06-04T10:11:47;2.40;;;1.30;;
35056;SDS011;21241;51.828;19.574;2023-06-04T10:14:22;2.00;;;1.20;;
35056;SDS011;21241;51.828;19.574;2023-06-04T10:16:51;1.90;;;1.30;;
35056;SDS011;21241;51.828;19.574;2023-06-04T10:19:19;3.00;;;1.40;;
35056;SDS011;21241;51.828;19.574;2023-06-04T10:21:47;2.00;;;1.40;;
35056;SDS011;21241;51.828;19.574;2023-06-04T10:24:15;1.30;;;1.20;;
35056;SDS011;21241;51.828;19.574;2023-06-04T10:26:43;1.70;;;1.60;;
35056;SDS011;21241;51.828;19.574;2023-06-04T10:29:11;1.70;;;1.20;;
35056;SDS011;21241;51.828;19.574;2023-06-04T10:31:40;2.10;;;1.10;;
35056;SDS011;21241;51.828;19.574;2023-06-04T10:34:09;1.00;;;1.00;;
35056;SDS011;21241;51.828;19.574;2023-06-04T10:36:45;2.00;;;1.20;;
35056;SDS011;21241;51.828;19.574;2023-06-04T10:39:13;1.30;;;1.20;;
35056;SDS011;21241;51.828;19.574;2023-06-04T10:42:03;1.20;;;1.20;;
35056;SDS011;21241;51.828;19.574;2023-06-04T10:44:43;1.80;;;1.40;;
35056;SDS011;21241;51.828;19.574;2023-06-04T10:47:19;1.30;;;1.20;;
35056;SDS011;21241;51.828;19.574;2023-06-04T10:49:52;1.40;;;1.20;;
35056;SDS011;21241;51.828;19.574;2023-06-04T10:52:21;1.10;;;1.10;;
35056;SDS011;21241;51.828;19.574;2023-06-04T10:54:49;1.30;;;1.20;;
35056;SDS011;21241;51.828;19.574;2023-06-04T10:57:20;1.40;;;1.30;;
35056;SDS011;21241;51.828;19.574;2023-06-04T10:59:55;1.20;;;1.10;;
35056;SDS011;21241;51.828;19.574;2023-06-04T11:02:23;1.60;;;1.10;;
35056;SDS011;21241;51.828;19.574;2023-06-04T11:07:43;1.40;;;1.10;;
35056;SDS011;21241;51.828;19.574;2023-06-04T11:10:13;1.80;;;1.00;;
35056;SDS011;21241;51.828;19.574;2023-06-04T11:12:48;1.40;;;1.10;;
35056;SDS011;21241;51.828;19.574;2023-06-04T11:15:20;1.50;;;1.10;;
35056;SDS011;21241;51.828;19.574;2023-06-04T11:17:49;1.20;;;1.10;;
35056;SDS011;21241;51.828;19.574;2023-06-04T11:20:18;1.30;;;1.20;;
35056;SDS011;21241;51.828;19.574;2023-06-04T11:22:51;1.20;;;1.10;;
35056;SDS011;21241;51.828;19.574;2023-06-04T11:25:20;1.90;;;1.40;;
35056;SDS011;21241;51.828;19.574;2023-06-04T11:27:51;1.30;;;1.20;;
35056;SDS011;21241;51.828;19.574;2023-06-04T11:30:19;2.50;;;1.50;;
35056;SDS011;21241;51.828;19.574;2023-06-04T11:32:47;3.30;;;1.40;;
35056;SDS011;21241;51.828;19.574;2023-06-04T11:35:16;1.60;;;1.20;;
35056;SDS011;21241;51.828;19.574;2023-06-04T11:37:52;1.70;;;1.10;;
35056;SDS011;21241;51.828;19.574;2023-06-04T11:40:22;1.60;;;1.40;;
35056;SDS011;21241;51.828;19.574;2023-06-04T11:42:50;2.70;;;1.20;;
35056;SDS011;21241;51.828;19.574;2023-06-04T11:45:19;1.00;;;0.90;;
35056;SDS011;21241;51.828;19.574;2023-06-04T11:47:54;1.50;;;1.40;;
35056;SDS011;21241;51.828;19.574;2023-06-04T11:50:27;1.40;;;1.30;;
35056;SDS011;21241;51.828;19.574;2023-06-04T11:52:55;1.80;;;1.10;;
35056;SDS011;21241;51.828;19.574;2023-06-04T11:55:23;1.60;;;1.30;;
35056;SDS011;21241;51.828;19.574;2023-06-04T11:57:52;1.50;;;1.40;;
35056;SDS011;21241;51.828;19.574;2023-06-04T12:00:21;1.80;;;1.30;;
35056;SDS011;21241;51.828;19.574;2023-06-04T12:05:20;4.00;;;1.40;;
35056;SDS011;21241;51.828;19.574;2023-06-04T12:07:51;1.60;;;1.50;;
35056;SDS011;21241;51.828;19.574;2023-06-04T12:10:20;1.60;;;1.40;;
35056;SDS011;21241;51.828;19.574;2023-06-04T12:12:54;1.50;;;1.40;;
35056;SDS011;21241;51.828;19.574;2023-06-04T12:15:23;3.10;;;1.90;;
35056;SDS011;21241;51.828;19.574;2023-06-04T12:17:51;1.60;;;1.30;;
35056;SDS011;21241;51.828;19.574;2023-06-04T12:20:31;2.20;;;1.40;;
35056;SDS011;21241;51.828;19.574;2023-06-04T12:23:04;1.90;;;1.70;;
35056;SDS011;21241;51.828;19.574;2023-06-04T12:25:34;1.90;;;1.30;;
35056;SDS011;21241;51.828;19.574;2023-06-04T12:28:05;1.60;;;1.50;;
35056;SDS011;21241;51.828;19.574;2023-06-04T12:30:37;1.80;;;1.60;;
35056;SDS011;21241;51.828;19.574;2023-06-04T12:33:06;2.60;;;1.60;;
35056;SDS011;21241;51.828;19.574;2023-06-04T12:35:34;1.50;;;1.40;;
35056;SDS011;21241;51.828;19.574;2023-06-04T12:38:03;1.40;;;1.30;;
35056;SDS011;21241;51.828;19.574;2023-06-04T12:40:32;1.40;;;1.30;;
35056;SDS011;21241;51.828;19.574;2023-06-04T12:42:59;1.90;;;1.70;;
35056;SDS011;21241;51.828;19.574;2023-06-04T12:45:27;3.60;;;1.80;;
35056;SDS011;21241;51.828;19.574;2023-06-04T12:47:55;1.70;;;1.60;;
35056;SDS011;21241;51.828;19.574;2023-06-04T12:50:23;1.90;;;1.60;;
35056;SDS011;21241;51.828;19.574;2023-06-04T12:52:50;2.50;;;1.50;;
35056;SDS011;21241;51.828;19.574;2023-06-04T12:55:18;1.40;;;1.30;;
35056;SDS011;21241;51.828;19.574;2023-06-04T12:57:46;2.00;;;1.70;;
35056;SDS011;21241;51.828;19.574;2023-06-04T13:00:14;1.40;;;1.40;;
35056;SDS011;21241;51.828;19.574;2023-06-04T13:02:44;1.70;;;1.60;;
35056;SDS011;21241;51.828;19.574;2023-06-04T13:05:12;1.60;;;1.50;;
35056;SDS011;21241;51.828;19.574;2023-06-04T13:07:40;1.90;;;1.50;;
35056;SDS011;21241;51.828;19.574;2023-06-04T13:10:08;1.90;;;1.50;;
35056;SDS011;21241;51.828;19.574;2023-06-04T13:12:36;1.70;;;1.30;;
35056;SDS011;21241;51.828;19.574;2023-06-04T13:15:04;2.40;;;1.40;;
35056;SDS011;21241;51.828;19.574;2023-06-04T13:17:32;1.40;;;1.20;;
35056;SDS011;21241;51.828;19.574;2023-06-04T13:20:01;3.30;;;1.60;;
35056;SDS011;21241;51.828;19.574;2023-06-04T13:22:29;2.50;;;1.30;;
35056;SDS011;21241;51.828;19.574;2023-06-04T13:24:57;1.50;;;1.40;;
35056;SDS011;21241;51.828;19.574;2023-06-04T13:27:24;1.90;;;1.50;;
35056;SDS011;21241;51.828;19.574;2023-06-04T13:29:52;1.50;;;1.20;;
35056;SDS011;21241;51.828;19.574;2023-06-04T13:32:20;1.30;;;1.20;;
35056;SDS011;21241;51.828;19.574;2023-06-04T13:34:48;5.80;;;1.50;;
35056;SDS011;21241;51.828;19.574;2023-06-04T13:37:16;1.50;;;1.40;;
35056;SDS011;21241;51.828;19.574;2023-06-04T13:39:43;1.90;;;1.70;;
35056;SDS011;21241;51.828;19.574;2023-06-04T13:42:11;1.40;;;1.30;;
35056;SDS011;21241;51.828;19.574;2023-06-04T13:44:39;1.80;;;1.30;;
35056;SDS011;21241;51.828;19.574;2023-06-04T13:47:07;2.10;;;1.20;;
35056;SDS011;21241;51.828;19.574;2023-06-04T13:49:34;1.50;;;1.40;;
35056;SDS011;21241;51.828;19.574;2023-06-04T13:52:02;1.20;;;1.10;;
35056;SDS011;21241;51.828;19.574;2023-06-04T13:54:30;1.90;;;1.40;;
35056;SDS011;21241;51.828;19.574;2023-06-04T13:57:02;2.50;;;1.40;;
35056;SDS011;21241;51.828;19.574;2023-06-04T13:59:32;2.50;;;1.70;;
35056;SDS011;21241;51.828;19.574;2023-06-04T14:02:00;1.90;;;1.50;;
35056;SDS011;21241;51.828;19.574;2023-06-04T14:04:28;1.60;;;1.50;;
35056;SDS011;21241;51.828;19.574;2023-06-04T14:06:56;2.10;;;2.00;;
35056;SDS011;21241;51.828;19.574;2023-06-04T14:09:24;1.50;;;1.40;;
35056;SDS011;21241;51.828;19.574;2023-06-04T14:11:52;1.60;;;1.50;;
35056;SDS011;21241;51.828;19.574;2023-06-04T14:14:20;1.80;;;1.50;;
35056;SDS011;21241;51.828;19.574;2023-06-04T14:16:48;1.80;;;1.40;;
35056;SDS011;21241;51.828;19.574;2023-06-04T14:19:16;1.60;;;1.40;;
35056;SDS011;21241;51.828;19.574;2023-06-04T14:21:44;1.90;;;1.30;;
35056;SDS011;21241;51.828;19.574;2023-06-04T14:24:12;1.40;;;1.30;;
35056;SDS011;21241;51.828;19.574;2023-06-04T14:26:40;1.60;;;1.50;;
35056;SDS011;21241;51.828;19.574;2023-06-04T14:29:07;1.50;;;1.40;;
35056;SDS011;21241;51.828;19.574;2023-06-04T14:31:35;1.90;;;1.30;;
35056;SDS011;21241;51.828;19.574;2023-06-04T14:34:03;1.60;;;1.40;;
35056;SDS011;21241;51.828;19.574;2023-06-04T14:36:31;2.50;;;1.60;;
35056;SDS011;21241;51.828;19.574;2023-06-04T14:38:58;1.60;;;1.30;;
35056;SDS011;21241;51.828;19.574;2023-06-04T14:41:27;1.40;;;1.30;;
35056;SDS011;21241;51.828;19.574;2023-06-04T14:43:54;2.20;;;1.40;;
35056;SDS011;21241;51.828;19.574;2023-06-04T14:46:23;2.00;;;1.30;;
35056;SDS011;21241;51.828;19.574;2023-06-04T14:48:52;1.80;;;1.30;;
35056;SDS011;21241;51.828;19.574;2023-06-04T14:51:20;2.10;;;1.30;;
35056;SDS011;21241;51.828;19.574;2023-06-04T14:53:50;1.50;;;1.40;;